It's Tuesday,
December 10th, 2019
User not logged in
[Run Race Header Image][Run Race logo]
  
Race webcasting is attempted by race directors and their support staff. Please remember that conditions under which they're working may make it difficult to post timely webcast updates... your interest and patience is appreciated!
Race Information
Race Name:Kettle Moraine Endurance Races 100/100k/50k/38 mile run run
Location:LaGrange
State:Wisconsin, United States
 button: button: Webcast Autoplay
Event Information
Name of Event:Kettle Moraine 100m
Distance:100 Miles
Started Date/Time:Saturday June 1st, 2019, 5:59:59.29 am
button: Assign Numbers  
Checkpoint:Scuppernong Turnaround
Distance:31.6 Miles
Gun Start Time:Saturday June 1st, 2019 5:59:59.29 am
Calculate Chip Start Time:< not set >
Y or N... Calculate splits based upon participant chip start time?
Allow Early Chip Start Time:< not set >
Y or N... Allow participants a chip start time prior to gun start?
Pos Race
Number
NameAgeSexTimePace 
1222Jon Noll34M4:42:34.98:56.5Sat Jun 1st 10:42:34 am
2169Jonathan Koscinski38M4:44:14.38:59.7Sat Jun 1st 10:44:13 am
3125DAVID HANSEN33M4:49:17.69:09.3Sat Jun 1st 10:49:16 am
4157Jason Keeler36M4:49:30.09:09.7Sat Jun 1st 10:49:29 am
5186James Luebke36M4:58:50.29:27.4Sat Jun 1st 10:58:49 am
6134Lindsay Henkels39F5:10:22.59:49.3Sat Jun 1st 11:10:21 am
7139Michael Hinterberg40M5:16:35.310:01.1Sat Jun 1st 11:16:34 am
8246Tom Rauen36M5:21:49.710:11.1Sat Jun 1st 11:21:48 am
9350William Kidnew31M5:24:59.410:17.1Sat Jun 1st 11:24:58 am
10322Lisa Wonneberg38F5:25:35.710:18.2Sat Jun 1st 11:25:35 am
11315Christine Westcott49F5:29:15.710:25.2Sat Jun 1st 11:29:14 am
12173Jon Laack33M5:30:50.010:28.2Sat Jun 1st 11:30:49 am
13164Scott Klopfenstein48M5:31:46.810:30.0Sat Jun 1st 11:31:46 am
1444Stacey Buckley43F5:31:47.110:30.0Sat Jun 1st 11:31:46 am
15135Lucas Henson34M5:32:38.710:31.6Sat Jun 1st 11:32:37 am
16201Abe Mendoza42M5:33:11.910:32.7Sat Jun 1st 11:33:11 am
1732Jamie Blumentritt31F5:34:06.310:34.4Sat Jun 1st 11:34:05 am
18217ERIC NELSON42M5:35:13.710:36.5Sat Jun 1st 11:35:13 am
19215Peeter Muursepp49M5:35:59.610:38.0Sat Jun 1st 11:35:58 am
20110Bibo Gao41F5:37:07.010:40.1Sat Jun 1st 11:37:06 am
21299John Truelove51M5:37:20.810:40.5Sat Jun 1st 11:37:20 am
22148Tony Jensen30M5:39:11.410:44.0Sat Jun 1st 11:39:10 am
2358Emily Collins40F5:39:18.510:44.3Sat Jun 1st 11:39:17 am
2460Jess Conboy38M5:39:23.910:44.4Sat Jun 1st 11:39:23 am
25309Mike Wallin35M5:41:36.810:48.6Sat Jun 1st 11:41:36 am
26266Mike Schmitt42M5:41:37.210:48.6Sat Jun 1st 11:41:36 am
271William Abel46M5:41:40.610:48.8Sat Jun 1st 11:41:39 am
2838Curt brey39M5:42:26.510:50.2Sat Jun 1st 11:42:25 am
29325Keith Wurm39M5:42:39.710:50.6Sat Jun 1st 11:42:38 am
30126Jon Hanson42M5:45:00.510:55.1Sat Jun 1st 11:44:59 am
3123Andrew Barr31M5:45:05.110:55.2Sat Jun 1st 11:45:04 am
3220Jeffrey Lenard53M5:45:16.310:55.6Sat Jun 1st 11:45:15 am
33209Kyle Moss28M5:46:45.210:58.4Sat Jun 1st 11:46:44 am
34312Frayah Wasmund34F5:47:03.010:59.0Sat Jun 1st 11:47:02 am
35307Jeremy Verstraete42M5:49:43.011:04.0Sat Jun 1st 11:49:42 am
36122Peter Hancovsky22M5:50:40.111:05.8Sat Jun 1st 11:50:39 am
37176Tim Landewe45M5:50:46.311:06.0Sat Jun 1st 11:50:45 am
3888Jen Even34F5:51:03.511:06.6Sat Jun 1st 11:51:02 am
392Timothy Adamski30M5:51:47.811:08.0Sat Jun 1st 11:51:47 am
4085Chris Dwyer39M5:51:52.411:08.1Sat Jun 1st 11:51:51 am
41103Steve Fredrickson39M5:53:01.311:10.3Sat Jun 1st 11:53:00 am
42255Mike Rohner39M5:53:02.611:10.3Sat Jun 1st 11:53:01 am
43301David Ulbert61M5:53:40.611:11.5Sat Jun 1st 11:53:39 am
4477Relena Del Toro Ribbons32F5:56:14.511:16.4Sat Jun 1st 11:56:13 am
45313Brian Wean37M5:58:40.911:21.0Sat Jun 1st 11:58:40 am
46282Anthony Steeno39M5:59:18.911:22.2Sat Jun 1st 11:59:18 am
47260Barry Sackett50M5:59:44.311:23.0Sat Jun 1st 11:59:43 am
48138Jason Herrboldt40M6:00:13.011:24.0Sat Jun 1st 12:00:12 pm
49153Brian Jubeck42M6:02:17.711:27.9Sat Jun 1st 12:02:16 pm
50241Bryan Powers51M6:02:45.611:28.8Sat Jun 1st 12:02:44 pm
5155Anthony Ciske41M6:03:19.511:29.9Sat Jun 1st 12:03:18 pm
5222Shaun Barnes47M6:03:20.511:29.9Sat Jun 1st 12:03:19 pm
53117Matt Granstrom40M6:03:21.411:29.9Sat Jun 1st 12:03:20 pm
54150Ray Johnson40M6:03:28.711:30.1Sat Jun 1st 12:03:28 pm
5575Tammy Davis40F6:03:30.311:30.2Sat Jun 1st 12:03:29 pm
56184Erika Lohn46F6:03:42.511:30.6Sat Jun 1st 12:03:41 pm
57182Jeff Leuwerke38M6:03:43.611:30.6Sat Jun 1st 12:03:42 pm
5847Rachel Burke34F6:04:38.811:32.4Sat Jun 1st 12:04:38 pm
59136Ilja Herdt35M6:06:06.211:35.1Sat Jun 1st 12:06:05 pm
6050Miguel Carreon52M6:06:25.611:35.7Sat Jun 1st 12:06:24 pm
61104Jennifer Freeman38F6:06:26.711:35.8Sat Jun 1st 12:06:26 pm
6283John Duncombe42M6:06:57.111:36.7Sat Jun 1st 12:06:56 pm
6327Brandon Becker42M6:08:29.611:39.7Sat Jun 1st 12:08:28 pm
64278Mark Smith40M6:10:02.011:42.6Sat Jun 1st 12:10:01 pm
6582Craig Duhn43M6:10:25.211:43.3Sat Jun 1st 12:10:24 pm
66298Ashley Truan35F6:13:44.811:49.6Sat Jun 1st 12:13:44 pm
67318Brad Whitson55M6:14:08.111:50.4Sat Jun 1st 12:14:07 pm
68276David Smith38M6:14:20.911:50.8Sat Jun 1st 12:14:20 pm
69293Barry Thrune43M6:15:09.011:52.3Sat Jun 1st 12:15:08 pm
70261Chris Salamasick33M6:15:29.311:53.0Sat Jun 1st 12:15:28 pm
71195Shannon McFarland43M6:16:12.811:54.3Sat Jun 1st 12:16:12 pm
72219Kurt Neumann44M6:16:38.611:55.1Sat Jun 1st 12:16:37 pm
73233Jake Peterson29M6:18:42.111:59.1Sat Jun 1st 12:18:41 pm
74214Steve Murray55M6:18:45.311:59.2Sat Jun 1st 12:18:44 pm
75181Lori Leonard57F6:19:16.812:00.2Sat Jun 1st 12:19:16 pm
76140Laura Hoban39F6:19:17.412:00.2Sat Jun 1st 12:19:16 pm
7770Jason Crowe46M6:19:37.912:00.8Sat Jun 1st 12:19:37 pm
78245Tony Rajkowski41M6:21:00.612:03.4Sat Jun 1st 12:20:59 pm
79296Jaymz Touchstone51M6:21:04.412:03.6Sat Jun 1st 12:21:03 pm
80171Predrag Krkic64M6:22:00.912:05.3Sat Jun 1st 12:22:00 pm
81310Ronghui Wang51M6:22:37.612:06.5Sat Jun 1st 12:22:36 pm
82127Gina Harcrow47F6:23:12.312:07.6Sat Jun 1st 12:23:11 pm
8351Steven Kuntz41M6:23:13.512:07.6Sat Jun 1st 12:23:12 pm
84141Russell House22M6:23:45.212:08.6Sat Jun 1st 12:23:44 pm
85118Lanier Greenhaw48M6:24:35.212:10.2Sat Jun 1st 12:24:34 pm
8645Mike Bull44M6:24:51.512:10.7Sat Jun 1st 12:24:50 pm
87172Jason Kumlien49M6:26:12.812:13.3Sat Jun 1st 12:26:12 pm
8872Kristen Cwik41F6:26:48.712:14.5Sat Jun 1st 12:26:48 pm
8971Bill Curry39M6:27:42.012:16.1Sat Jun 1st 12:27:41 pm
90251Parker Rios52M6:28:18.212:17.3Sat Jun 1st 12:28:17 pm
91244Erik Raivo35M6:29:00.912:18.6Sat Jun 1st 12:29:00 pm
9286Stefan Elbel46M6:30:22.712:21.2Sat Jun 1st 12:30:21 pm
93196Candice McMackin46F6:30:26.212:21.3Sat Jun 1st 12:30:25 pm
9452Brian Cavanaugh38M6:31:59.212:24.3Sat Jun 1st 12:31:58 pm
956Alisha Alness32F6:33:58.712:28.1Sat Jun 1st 12:33:57 pm
96225Charlie Ortiz39M6:34:13.212:28.5Sat Jun 1st 12:34:12 pm
9711Jon Archer35M6:34:51.812:29.7Sat Jun 1st 12:34:51 pm
98106austin frion36M6:35:20.112:30.6Sat Jun 1st 12:35:19 pm
99227John Papiernik34M6:36:06.812:32.1Sat Jun 1st 12:36:06 pm
100256Moriel Rothman-Zecher29M6:36:06.812:32.1Sat Jun 1st 12:36:06 pm
10187Mike Elsbury35M6:36:08.112:32.2Sat Jun 1st 12:36:07 pm
102212Andrew Murphy35M6:36:09.712:32.2Sat Jun 1st 12:36:08 pm
103203Scott Meyers51M6:36:46.512:33.4Sat Jun 1st 12:36:45 pm
104277Malcolm Smith56M6:37:26.312:34.6Sat Jun 1st 12:37:25 pm
105226Adam Page35M6:38:13.812:36.1Sat Jun 1st 12:38:13 pm
106208William Morrissey37M6:38:15.812:36.2Sat Jun 1st 12:38:15 pm
10740Kurt Brown52M6:38:27.012:36.6Sat Jun 1st 12:38:26 pm
10878Paul Deuchar43M6:38:53.012:37.4Sat Jun 1st 12:38:52 pm
109147Christian Jensen41M6:39:21.612:38.3Sat Jun 1st 12:39:20 pm
110179Matthew Lee40M6:39:21.812:38.3Sat Jun 1st 12:39:21 pm
111280jonathan Spry36M6:40:44.012:40.9Sat Jun 1st 12:40:43 pm
112191Panagiotis MALLIARIS53M6:41:46.912:42.9Sat Jun 1st 12:41:46 pm
11353Todd Chandler51M6:42:45.612:44.7Sat Jun 1st 12:42:44 pm
11415James Baetz41M6:43:00.012:45.2Sat Jun 1st 12:42:59 pm
115284Scott Stith37M6:43:24.412:46.0Sat Jun 1st 12:43:23 pm
11649Ausra Butkeviciute42F6:43:29.112:46.1Sat Jun 1st 12:43:28 pm
117237Richard Plezia60M6:45:17.612:49.5Sat Jun 1st 12:45:16 pm
1189Jeremy Anderson45M6:45:24.712:49.8Sat Jun 1st 12:45:24 pm
119206Matt Monroe47M6:45:31.912:50.0Sat Jun 1st 12:45:31 pm
120154David Just59M6:45:37.712:50.2Sat Jun 1st 12:45:36 pm
121314Tim Wegner53M6:46:49.712:52.5Sat Jun 1st 12:46:48 pm
122243Meghan Prohaska30F6:48:22.712:55.4Sat Jun 1st 12:48:21 pm
12319Laney Baris44F6:48:22.812:55.4Sat Jun 1st 12:48:22 pm
12474Heather Davenport52F6:48:48.512:56.2Sat Jun 1st 12:48:47 pm
125146Stacy Jantz27F6:48:49.012:56.2Sat Jun 1st 12:48:48 pm
12642Jason Brozek39M6:49:44.312:58.0Sat Jun 1st 12:49:43 pm
127218Mark Nelson50M6:49:48.312:58.1Sat Jun 1st 12:49:47 pm
128202David Mentjes49M6:49:52.912:58.3Sat Jun 1st 12:49:52 pm
129317Tony Weyers49M6:50:30.912:59.5Sat Jun 1st 12:50:30 pm
130288Paul Swindle39M6:50:33.712:59.5Sat Jun 1st 12:50:33 pm
131144stephanie hurtado38F6:50:34.812:59.6Sat Jun 1st 12:50:34 pm
132174Joshua Lacey34M6:50:42.412:59.8Sat Jun 1st 12:50:41 pm
13368Dan Crouse42M6:50:50.613:00.1Sat Jun 1st 12:50:49 pm
13417Christopher Baldwin46M6:51:01.013:00.4Sat Jun 1st 12:51:00 pm
135283Sharleen Stevens36F6:51:04.713:00.5Sat Jun 1st 12:51:03 pm
136223Faye Norby37F6:51:06.313:00.6Sat Jun 1st 12:51:05 pm
13781Roger Doyle44M6:51:06.513:00.6Sat Jun 1st 12:51:05 pm
13892David Files44M6:51:29.713:01.3Sat Jun 1st 12:51:28 pm
13969Jamie Crouse39F6:51:30.313:01.3Sat Jun 1st 12:51:29 pm
140279Philip Spicer28M6:51:30.513:01.3Sat Jun 1st 12:51:29 pm
1417Cheryl Anderson46F6:52:10.213:02.6Sat Jun 1st 12:52:09 pm
142235Josh Phillips38M6:52:10.913:02.6Sat Jun 1st 12:52:10 pm
143248Jessica Rettig40F6:53:15.313:04.7Sat Jun 1st 12:53:14 pm
144123Geoff Hanley43M6:53:21.613:04.9Sat Jun 1st 12:53:20 pm
14593Bryan Fillman47M6:53:42.613:05.5Sat Jun 1st 12:53:41 pm
146316Trent Wester34M6:54:20.013:06.7Sat Jun 1st 12:54:19 pm
14773Ronnie Daniel49M6:54:37.313:07.3Sat Jun 1st 12:54:36 pm
148213Morgan Murphy42M6:54:53.013:07.8Sat Jun 1st 12:54:52 pm
149113Jeff Goodmanson56M6:56:01.913:09.9Sat Jun 1st 12:56:01 pm
150112Matt Goff32M6:56:26.713:10.7Sat Jun 1st 12:56:26 pm
15176Sonya Decker52F6:58:20.813:14.3Sat Jun 1st 12:58:20 pm
152102Douglas Franklin38M6:58:30.013:14.6Sat Jun 1st 12:58:29 pm
153119Andy Hahn35M6:58:35.113:14.8Sat Jun 1st 12:58:34 pm
15463Ryan Cooper43M6:58:39.913:14.9Sat Jun 1st 12:58:39 pm
155303Brent Vanderhoof48M6:59:06.013:15.8Sat Jun 1st 12:59:05 pm
156304Tim Vanderhoof51M6:59:06.613:15.8Sat Jun 1st 12:59:05 pm
157161Mike Kenney41M6:59:19.713:16.2Sat Jun 1st 12:59:19 pm
158292Paul Thomson45M6:59:20.513:16.2Sat Jun 1st 12:59:19 pm
15928Tim Belleau53M6:59:42.013:16.9Sat Jun 1st 12:59:41 pm
160270Liz Schumacher37F6:59:43.713:17.0Sat Jun 1st 12:59:43 pm
161252Mary Rittgers38F7:00:03.313:17.6Sat Jun 1st 1:00:02 pm
162100Sara Foster43F7:00:03.513:17.6Sat Jun 1st 1:00:02 pm
163289Christopher Tebeau48M7:00:23.113:18.2Sat Jun 1st 1:00:22 pm
164291Jennifer Thoennes37F7:01:11.813:19.7Sat Jun 1st 1:01:11 pm
16567Gary Craig31M7:01:57.213:21.2Sat Jun 1st 1:01:56 pm
16621Michael Barnaby36M7:04:16.113:25.6Sat Jun 1st 1:04:15 pm
167143jeremy hurm42M7:04:32.113:26.1Sat Jun 1st 1:04:31 pm
168239Matthew Poore38M7:05:27.613:27.8Sat Jun 1st 1:05:26 pm
169193Gregory Marshall29M7:05:28.413:27.9Sat Jun 1st 1:05:27 pm
170151ERROL JONES69M7:05:33.613:28.0Sat Jun 1st 1:05:32 pm
17156Ryan Clayton35M7:06:30.313:29.8Sat Jun 1st 1:06:29 pm
172230Jason Patera43M7:07:38.513:32.0Sat Jun 1st 1:07:37 pm
17343Becky Brudwick52F7:08:06.813:32.9Sat Jun 1st 1:08:06 pm
17496Jeremy Fischer42M7:08:23.513:33.4Sat Jun 1st 1:08:22 pm
17535Hope Bollig39F7:08:26.813:33.5Sat Jun 1st 1:08:26 pm
176167nathan koehn40M7:08:46.313:34.1Sat Jun 1st 1:08:45 pm
17729Nicole Bernardin39F7:09:00.613:34.6Sat Jun 1st 1:08:59 pm
178204Jonathan Mireles35M7:09:09.213:34.8Sat Jun 1st 1:09:08 pm
179265Dustin Schmidt33M7:09:44.213:36.0Sat Jun 1st 1:09:43 pm
180275Jason Shrontz39M7:09:44.813:36.0Sat Jun 1st 1:09:44 pm
181198COLE MCNABB31M7:09:46.013:36.0Sat Jun 1st 1:09:45 pm
18210Scott Anderson37M7:09:47.313:36.1Sat Jun 1st 1:09:46 pm
183264Nick Schaid34M7:09:47.613:36.1Sat Jun 1st 1:09:46 pm
184268Trudi Schoening40F7:10:32.713:37.5Sat Jun 1st 1:10:31 pm
185329Tammy Zyduck54F7:10:33.613:37.5Sat Jun 1st 1:10:32 pm
18691Troy Figgins49M7:10:35.913:37.6Sat Jun 1st 1:10:35 pm
187258Ritzy Running23F7:10:44.413:37.9Sat Jun 1st 1:10:43 pm
18816Corey Baker49M7:10:57.413:38.3Sat Jun 1st 1:10:56 pm
189269Ann Scholl49F7:11:34.713:39.5Sat Jun 1st 1:11:33 pm
190319Kim Willison49F7:11:38.013:39.6Sat Jun 1st 1:11:37 pm
19146Lucy Burke44F7:11:38.713:39.6Sat Jun 1st 1:11:37 pm
19213Todd Arnold39M7:11:41.013:39.7Sat Jun 1st 1:11:40 pm
193228Michael Parker34M7:13:50.713:43.8Sat Jun 1st 1:13:49 pm
1944Sevil Aksoy36F7:13:53.813:43.9Sat Jun 1st 1:13:53 pm
19595David Fischer56M7:15:31.313:46.9Sat Jun 1st 1:15:30 pm
196152Jimmy Jones40M7:15:40.813:47.2Sat Jun 1st 1:15:40 pm
197286Stephen Strauss64M7:16:47.513:49.4Sat Jun 1st 1:16:46 pm
198207Erik Morrell42M7:19:06.513:53.8Sat Jun 1st 1:19:05 pm
199142Laura Hufschmidt38F7:20:42.213:56.8Sat Jun 1st 1:20:41 pm
200272Dan-O Semsel52M7:21:08.913:57.6Sat Jun 1st 1:21:08 pm
20139Linda Britz49F7:21:54.113:59.1Sat Jun 1st 1:21:53 pm
202130Jason Hastings47M7:22:08.013:59.5Sat Jun 1st 1:22:07 pm
203229Philip Parsons40M7:22:29.714:00.2Sat Jun 1st 1:22:29 pm
204192Nick Mariotti40M7:22:31.614:00.2Sat Jun 1st 1:22:30 pm
205311Ryan Wanless41M7:22:31.814:00.2Sat Jun 1st 1:22:31 pm
206194Evan McDoniels37M7:22:49.714:00.8Sat Jun 1st 1:22:48 pm
2073Paul Ahearn47M7:23:34.614:02.2Sat Jun 1st 1:23:33 pm
208200Ryan Menard45M7:23:43.214:02.5Sat Jun 1st 1:23:42 pm
209180Aurora LeMay31F7:26:35.214:07.9Sat Jun 1st 1:26:34 pm
210259Daryl Saari56M7:27:01.214:08.8Sat Jun 1st 1:27:00 pm
211250Michael Riordan35M7:28:19.314:11.2Sat Jun 1st 1:28:18 pm
212128Jaime Hardgrove39F7:28:21.214:11.3Sat Jun 1st 1:28:20 pm
213145Scott Irwin54M7:28:22.014:11.3Sat Jun 1st 1:28:21 pm
214211Peter Mulligan53M7:29:01.014:12.6Sat Jun 1st 1:29:00 pm
215149Nathan Johnson36M7:29:13.914:13.0Sat Jun 1st 1:29:13 pm
216183Nile Limbach25M7:30:56.414:16.2Sat Jun 1st 1:30:55 pm
21726Jon Beard64M7:31:21.214:17.0Sat Jun 1st 1:31:20 pm
218216Mack Naber35M7:32:28.514:19.1Sat Jun 1st 1:32:27 pm
219107Jeni Funk-Miller50F7:32:36.614:19.4Sat Jun 1st 1:32:35 pm
220263Geni Scalio48F7:32:36.714:19.4Sat Jun 1st 1:32:36 pm
221247Barry Reece49M7:33:01.714:20.2Sat Jun 1st 1:33:00 pm
22297Tara Flesch40F7:33:07.614:20.4Sat Jun 1st 1:33:06 pm
223131Shannon Haus48M7:33:16.314:20.6Sat Jun 1st 1:33:15 pm
224295Joel Toews41M7:33:39.014:21.4Sat Jun 1st 1:33:38 pm
225305Nikki Vapensky Marvel49F7:33:48.714:21.7Sat Jun 1st 1:33:48 pm
226285Arno Stoffel50M7:34:46.714:23.5Sat Jun 1st 1:34:45 pm
227326Salli Scott Young46F7:35:51.814:25.6Sat Jun 1st 1:35:51 pm
228238Daria Podejko46F7:36:18.214:26.4Sat Jun 1st 1:36:17 pm
22924Christian Barry51M7:36:32.714:26.9Sat Jun 1st 1:36:31 pm
230210Jen Mullen45F7:36:48.114:27.3Sat Jun 1st 1:36:47 pm
231111Megan Gibson39F7:37:00.114:27.7Sat Jun 1st 1:36:59 pm
232165Leigh Knaus38F7:38:19.114:30.2Sat Jun 1st 1:38:18 pm
233166Kendra Kneer38F7:38:22.314:30.3Sat Jun 1st 1:38:21 pm
234262Kevin Sas35M7:39:31.614:32.5Sat Jun 1st 1:39:30 pm
235267Andy Schmitz41M7:39:31.814:32.5Sat Jun 1st 1:39:31 pm
23637Ryan Borucki41M7:39:32.914:32.6Sat Jun 1st 1:39:32 pm
2375Richard Albanese46M7:40:36.714:34.6Sat Jun 1st 1:40:35 pm
2388Jay Anderson46M7:41:11.214:35.7Sat Jun 1st 1:41:10 pm
239281Josh Stebbins32M7:41:22.414:36.0Sat Jun 1st 1:41:21 pm
240274Paul Shimondle67M7:41:33.514:36.4Sat Jun 1st 1:41:32 pm
241115Kelli Gorski39F7:41:35.714:36.4Sat Jun 1st 1:41:35 pm
242254arturo Rodriguez42M7:41:39.514:36.6Sat Jun 1st 1:41:38 pm
243137Jen Herdzina31F7:41:41.514:36.6Sat Jun 1st 1:41:40 pm
244170Randy Kreill56M7:42:09.814:37.5Sat Jun 1st 1:42:09 pm
245273Shawn Severson46F7:42:40.314:38.5Sat Jun 1st 1:42:39 pm
24618Angela Barbera58F7:44:53.914:42.7Sat Jun 1st 1:44:53 pm
24764Daniel Cordova40M7:44:59.914:42.9Sat Jun 1st 1:44:59 pm
248129Josh Harris33M7:45:10.614:43.2Sat Jun 1st 1:45:09 pm
249323Karen Wray54F7:45:41.114:44.2Sat Jun 1st 1:45:40 pm
25062Jim Cooper50M7:45:52.814:44.6Sat Jun 1st 1:45:52 pm
251197todd mcmillion54M7:47:14.814:47.2Sat Jun 1st 1:47:14 pm
252294John Tiwet52M7:47:32.514:47.7Sat Jun 1st 1:47:31 pm
253116Joe Gow56M7:49:16.314:51.0Sat Jun 1st 1:49:15 pm
254133jon hendren57M7:50:12.914:52.8Sat Jun 1st 1:50:12 pm
255308Erica Wagner32F7:50:14.314:52.9Sat Jun 1st 1:50:13 pm
25612Anjanette Arnold43F7:50:15.514:52.9Sat Jun 1st 1:50:14 pm
257189Jennifer Majewski35F7:52:24.014:57.0Sat Jun 1st 1:52:23 pm
258205Andrew Mitchel55M7:54:19.315:00.6Sat Jun 1st 1:54:18 pm
259108Carl Galdine46M8:00:12.615:11.8Sat Jun 1st 2:00:11 pm
260187Jeffery Lung40M8:02:12.215:15.6Sat Jun 1st 2:02:11 pm
261306Edna Jackeline Vazquez Lung37F8:02:36.115:16.3Sat Jun 1st 2:02:35 pm
26234Irina Boggie-Miloserdova59F8:03:33.815:18.2Sat Jun 1st 2:03:33 pm
263177Brian Landstrom67M8:03:38.015:18.3Sat Jun 1st 2:03:37 pm
26461Hannah Conway31F8:03:49.815:18.7Sat Jun 1st 2:03:49 pm
26565Carleen Coulter52F8:05:22.915:21.6Sat Jun 1st 2:05:22 pm
266321torrey wilson28F8:05:46.215:22.3Sat Jun 1st 2:05:45 pm
267190Elizabeth Male28F8:05:48.315:22.4Sat Jun 1st 2:05:47 pm
268121Becca Hamm McMillan30F8:06:00.315:22.8Sat Jun 1st 2:05:59 pm
269290Josh TenBrink38M8:08:29.815:27.5Sat Jun 1st 2:08:29 pm
27090Bill Fairfield63M8:09:31.415:29.5Sat Jun 1st 2:09:30 pm
271160Michael Kennedy36M8:11:04.415:32.4Sat Jun 1st 2:11:03 pm
272159Mandi Kennedy36F8:11:05.015:32.4Sat Jun 1st 2:11:04 pm
273178Jeff laughead42M8:11:33.815:33.3Sat Jun 1st 2:11:33 pm
274253Tara Roberts39F8:12:04.915:34.3Sat Jun 1st 2:12:04 pm
27559Jennell Colwell40F8:12:23.215:34.9Sat Jun 1st 2:12:22 pm
27680John Doyle58M8:12:37.815:35.4Sat Jun 1st 2:12:37 pm
277240REGAN POURCHOT59M8:14:50.015:39.6Sat Jun 1st 2:14:49 pm
278257Jeffrey Ruiz53M8:15:34.515:41.0Sat Jun 1st 2:15:33 pm
27948Susan Bush51F8:16:33.315:42.8Sat Jun 1st 2:16:32 pm
280242Noah Praetz42M8:17:14.915:44.1Sat Jun 1st 2:17:14 pm
281271Tyler sears31M8:18:03.815:45.7Sat Jun 1st 2:18:03 pm
282324Kenny Wunder42M8:19:50.315:49.1Sat Jun 1st 2:19:49 pm
28366Ezra Coutre30M8:19:50.515:49.1Sat Jun 1st 2:19:49 pm
284249Kimmy Riley58F8:20:06.615:49.6Sat Jun 1st 2:20:05 pm
285320Dennis wilson61M8:21:11.115:51.6Sat Jun 1st 2:21:10 pm
28699Ron Foster52M8:23:21.015:55.7Sat Jun 1st 2:23:20 pm
287156brandon karl43M8:27:40.016:03.9Sat Jun 1st 2:27:39 pm
288101Jenny Fox34F8:30:50.816:10.0Sat Jun 1st 2:30:50 pm
289175Traci Lambert-Cwerenz58F8:33:22.916:14.8Sat Jun 1st 2:33:22 pm
290185Radek Lopusnik45M8:43:18.316:33.6Sat Jun 1st 2:43:17 pm
291221kimberly nickel54F8:54:48.716:55.5Sat Jun 1st 2:54:47 pm
292162Leopold Kesseler21M9:04:52.417:14.6Sat Jun 1st 3:04:51 pm
293158Evie Kellogg39F9:25:00.017:52.8

Event Information
Name of Event:Kettle Moraine 100k
Distance:100 Kilometers
Started Date/Time:Saturday June 1st, 2019, 5:59:59.29 am
button: Assign Numbers 

Event Information
Name of Event:Kettle Team Relay
Distance:100 Miles
Started Date/Time:Saturday June 1st, 2019, 5:59:59.29 am
button: Assign Numbers 

Event Information
Name of Event:Kettle Moraine 50k
Distance:50 Kilometers
Started Date/Time:Saturday June 1st, 2019, 1:00:00.20 pm
button: Assign Numbers 

Event Information
Name of Event:Kettle 38 mile Fun Run
Distance:38 Miles
Scheduled Date/Time:Saturday June 1, 2019, 5:30 pm
button: Assign Numbers 
2004-2019 : All rights reserved
Terms and Conditions